Hauptseite
METAR-TAF:

METAR-TAF

Flughäfen :

Militärflugplatz Avord

Avord, Frankreich

Breite: 47-03-12N, Länge: 002-37-57E, Höhe: 177 m

Beobachtung

Neuester Wetterbericht von vor 16 Minuten, um 13:30 UTC
Wind 4 kt aus unterschiedlichen Richtungen
Temperatur 33°C
Luftfeuchtigkeit 20%
Luftdruck 1017 hPa
Sichtweite 10 km oder mehr
keine Wolken unter 1500 m und keine Kumulonimbus oder Gewitterwolken

METAR: LFOA 061330Z AUTO VRB04KT CAVOK 33/07 Q1017 NOSIG

Zeit: 15:46 (13:46 UTC)

Prognose

Neuester Wetterbericht von vor 5 Stunden und 46 Minuten, um 08:00 UTC
Gültige Prognose vom 06 um 09 UTC bis 07 um 09 UTC
Wind 5 kt aus Ost/Südost
Sichtweite 10 km oder mehr
keine Wolken unter 1500 m und keine Kumulonimbus oder Gewitterwolken

TAF: LFOA 060800Z 0609/0709 12005KT CAVOK

Wetterbeobachtungen und Prognosen von mehr als 4000 Flughäfen (METAR und TAF Bericht).

Die verfügbaren Stationen werden durch gelbe und rote Markierungen auf der Karte dargestellt.

Führen Sie die Maus auf sie, um den Namen der Station zu sehen.

Darauf klicken, um die Beobachtung von Wetterbeobachtungen und Prognosen zu sehen.

Um die Karte zu ändern : klicken Sie auf den grünen Tasten mit einem schwarzen Kreuz Zum Vergrößern, auf den grünen Button mit einem Gedankenstrich zu verkleinern, oder auf die grünen Pfeile für benachbarte Karten.


METAR-TAF: